Pagrindinis puslapis
METAR-TAF:

METAR-TAF

Oro uostai :

Isfahanas, Iranas

platuma: 32-28N, ilguma: 051-43E, Aukštis: 1590 m

Dabartinis oras

Ataskaita buvo paskelbta 31 minutes, ne 22:30 UTC
Vėjas 10 kt iš Šiaurės Vakarų
Temperatūra 23°C
Drėgmė 16%
Slėgis 1019 hPa
Matomumas 10 km arba daugiau
Mažai debesys ne aukštis 4000 ft

METAR: OIFM 052230Z 31010KT 9999 FEW040 23/M04 Q1018 A3008

Laikas: 03:31 (23:01 UTC)

Prognozė

Ataskaita buvo paskelbta 5 valandos ir 31 minutes, ne 17:30 UTC
Prognozė galioja nuo 05 metu 18 UTC su 06 metu 24 UTC
Vėjas 8 kt iš Vakarų/Šiaurės Vakarų
Matomumas: 8000 m
Mažai debesys ne aukštis 4000 ft
Laikinai
nuo 05 metu 23 UTC su 06 metu 04 UTC
Matomumas: 4000 m
migla
Laikinai
nuo 06 metu 13 UTC su 06 metu 19 UTC
Vėjas 18 kt iš Šiaurės Rytų

TAF: OIFM 051730Z 0518/0624 30008KT 8000 FEW040 TEMPO 0523/0604 4000 HZ TEMPO 0613/0619 04018KT

Orai ataskaitas ir orų prognozės (METAR, TAF).

turimą stotys yra geltonos ir raudonos taškus žemėlapyje.

Perkelti pele per norėdami pamatyti stoties vardą.

Tada spustelėkite, norėdami matyti oro stebėjimo ir prognozės.

Norėdami pakeisti žemėlapį: spustelėkite ant žalios mygtukų su juodo kryžiaus žemyn,; žalią mygtuką su brūkšneliu, jei norite nutolinti; arba žalių rodyklių gretimoms žemėlapius.


METAR-TAF: